KLFK/LFK METAR and TAF weather

Enter ICAO airport designator
Station Type Date Time Source
KLFK METAR 2021/09/23 18:53 UTC NOAA

KLFK 231853Z AUTO VRB03KT 10SM CLR 28/07 A3008 RMK AO2 SLP184 T02780067


Station Type Date Time Source
KLFK Decoded METAR 2021/09/23 18:53 UTC NOAA

LUFKIN ANGELINA COUNTY AIRPORT , TX, United States (KLFK) 31-14N 94-45W 88M
Sep 23, 2021 - 02:53 PM EDT / 2021.09.23 1853 UTC
Wind: Variable at 3 MPH (3 KT):0
Visibility: 10 mile(s):0
Sky conditions: clear
Temperature: 82.0 F (27.8 C)
Dew Point: 44.1 F (6.7 C)
Relative Humidity: 26%
Pressure (altimeter): 30.08 in. Hg (1018 hPa)
ob: KLFK 231853Z AUTO VRB03KT 10SM CLR 28/07 A3008 RMK AO2 SLP184 T02780067
cycle: 19

Station Type Date Time Source
KLFK TAF 2021/09/23 18:24 UTC NOAA

TAF KLFK 231723Z 2318/2418 VRB03KT P6SM SKC
FM240000 VRB03KT P6SM FEW250
FM241500 16005KT P6SM SCT250

Example: see airport list